KDVT/DVT METAR and TAF weather

Enter ICAO airport designator
Station Type Date Time Source
KDVT METAR 2020/07/14 21:53 UTC NOAA

KDVT 142153Z 10SM CLR 41/12 A2983 RMK AO2 SLP071 T04110117


Station Type Date Time Source
KDVT Decoded METAR 2020/07/14 21:53 UTC NOAA

PHOENIX-DEER VALLEY MUN, AZ, United States (KDVT) 33-41N 112-04W 443M
Jul 14, 2020 - 05:53 PM EDT / 2020.07.14 2153 UTC
Visibility: 10 mile(s):0
Sky conditions: clear
Temperature: 106.0 F (41.1 C)
Heat index: 104.0 F (40.0 C):1
Dew Point: 53.1 F (11.7 C)
Relative Humidity: 17%
Pressure (altimeter): 29.83 in. Hg (1010 hPa)
ob: KDVT 142153Z 10SM CLR 41/12 A2983 RMK AO2 SLP071 T04110117
cycle: 22

Station Type Date Time Source
KDVT TAF 2020/07/14 18:39 UTC NOAA

TAF KDVT 141736Z 1418/1518 21007KT P6SM SKC
FM142200 22011G20KT P6SM SKC
FM150200 23008KT P6SM SKC
FM150400 VRB05KT P6SM SKC
FM151500 15006KT P6SM FEW200

Example: see airport list